Time;durP1;ratioP1;P1;durP2;ratioP2;P2;SDS_P1;SDS_P2;PMS_P1;PMS_P2;Temp;Humidity;BMP_temperature;BMP_pressure;BME280_temperature;BME280_humidity;BME280_pressure;Samples;Min_cycle;Max_cycle;Signal;HPM_P1;HPM_P2
2023/05/07 00:02:07;;;;;;;16.70;12.70;;;13.90;99.90;;;;;;7372991;19;20037;-65
2023/05/07 00:04:37;;;;;;;14.32;12.10;;;13.90;99.90;;;;;;7365599;19;20022;-65
2023/05/07 00:07:04;;;;;;;14.10;12.23;;;13.90;99.90;;;;;;7364696;19;20022;-65
2023/05/07 00:09:30;;;;;;;13.95;12.40;;;13.80;99.90;;;;;;7373257;19;20026;-59
2023/05/07 00:11:56;;;;;;;15.52;12.88;;;13.80;99.90;;;;;;7371050;19;20199;-59
2023/05/07 00:14:23;;;;;;;15.63;13.82;;;13.80;99.90;;;;;;7365748;19;20022;-65
2023/05/07 00:16:49;;;;;;;19.45;17.55;;;13.80;99.90;;;;;;7368629;19;20885;-65
2023/05/07 00:19:15;;;;;;;15.65;13.68;;;13.80;99.90;;;;;;7369033;19;20022;-59
2023/05/07 00:21:41;;;;;;;16.88;15.25;;;13.70;99.90;;;;;;7375248;19;20025;-59
2023/05/07 00:24:08;;;;;;;17.08;15.20;;;13.70;99.90;;;;;;7369955;19;20370;-59
2023/05/07 00:26:34;;;;;;;18.38;16.10;;;13.70;99.90;;;;;;7372242;19;20021;-59
2023/05/07 00:29:00;;;;;;;17.13;15.27;;;13.70;99.90;;;;;;7366868;19;20098;-59
2023/05/07 00:31:27;;;;;;;17.27;15.57;;;13.70;99.90;;;;;;7369544;19;20014;-59
2023/05/07 00:33:53;;;;;;;17.08;14.93;;;13.60;99.90;;;;;;7370634;19;20867;-59
2023/05/07 00:36:19;;;;;;;19.52;16.85;;;13.60;99.90;;;;;;7370032;19;20034;-65
2023/05/07 00:38:48;;;;;;;20.48;18.33;;;13.60;99.90;;;;;;7371361;19;20049;-59
2023/05/07 00:41:15;;;;;;;19.73;17.73;;;13.60;99.90;;;;;;7364107;19;20015;-65
2023/05/07 00:43:42;;;;;;;19.40;17.23;;;13.50;99.90;;;;;;7368802;19;20035;-64
2023/05/07 00:46:08;;;;;;;20.60;17.60;;;13.50;99.90;;;;;;7369753;19;20388;-65
2023/05/07 00:48:34;;;;;;;21.45;19.05;;;13.50;99.90;;;;;;7365929;19;20482;-65
2023/05/07 00:51:00;;;;;;;20.73;17.52;;;13.50;99.90;;;;;;7366581;19;20616;-59
2023/05/07 00:53:27;;;;;;;21.23;19.15;;;13.50;99.90;;;;;;7371631;19;20022;-65
2023/05/07 00:55:53;;;;;;;22.75;19.42;;;13.40;99.90;;;;;;7367795;19;20042;-65
2023/05/07 00:58:21;;;;;;;21.92;19.42;;;13.40;99.90;;;;;;7370997;19;21059;-65
2023/05/07 01:00:47;;;;;;;23.92;21.35;;;13.40;99.90;;;;;;7370028;19;20033;-65
2023/05/07 01:03:13;;;;;;;22.98;20.10;;;13.30;99.90;;;;;;7372504;19;20116;-65
2023/05/07 01:05:40;;;;;;;21.98;19.30;;;13.30;99.90;;;;;;7371384;19;20414;-59
2023/05/07 01:08:07;;;;;;;24.40;21.55;;;13.30;99.90;;;;;;7370219;19;20041;-65
2023/05/07 01:10:33;;;;;;;23.65;20.90;;;13.20;99.90;;;;;;7369424;19;20022;-59
2023/05/07 01:13:00;;;;;;;22.75;20.65;;;13.10;99.90;;;;;;7369518;19;20019;-59
2023/05/07 01:15:26;;;;;;;23.83;21.55;;;13.10;99.90;;;;;;7366496;19;20131;-59
2023/05/07 01:17:53;;;;;;;25.77;23.10;;;12.90;99.90;;;;;;7371883;19;20018;-65
2023/05/07 01:20:29;;;;;;;25.88;23.17;;;12.90;99.90;;;;;;7369288;19;20014;-65
2023/05/07 01:22:57;;;;;;;23.23;20.88;;;12.90;99.90;;;;;;7371524;19;20042;-59
2023/05/07 01:25:24;;;;;;;28.70;25.38;;;12.80;99.90;;;;;;7370304;19;20010;-65
2023/05/07 01:27:53;;;;;;;25.27;22.58;;;12.80;99.90;;;;;;7372598;19;20015;-65
2023/05/07 01:30:23;;;;;;;27.13;24.25;;;12.70;99.90;;;;;;7370397;19;20018;-64
2023/05/07 01:32:56;;;;;;;27.77;24.88;;;12.70;99.90;;;;;;7370977;19;20081;-65
2023/05/07 01:35:27;;;;;;;26.85;23.92;;;12.60;99.90;;;;;;7366631;19;20042;-59
2023/05/07 01:37:54;;;;;;;27.73;24.17;;;12.60;99.90;;;;;;7371470;19;20019;-59
2023/05/07 01:40:21;;;;;;;27.88;23.55;;;12.60;99.90;;;;;;7371532;19;20019;-59
2023/05/07 01:42:48;;;;;;;23.70;20.98;;;12.60;99.90;;;;;;7371276;19;20033;-59
2023/05/07 01:45:14;;;;;;;27.83;24.92;;;12.50;99.90;;;;;;7371064;19;20018;-64
2023/05/07 01:47:41;;;;;;;27.63;24.70;;;12.50;99.90;;;;;;7369774;19;20401;-64
2023/05/07 01:50:09;;;;;;;30.48;27.30;;;12.40;99.90;;;;;;7368724;19;20018;-64
2023/05/07 01:52:39;;;;;;;28.35;25.27;;;12.40;99.90;;;;;;7366640;19;20021;-65
2023/05/07 01:55:06;;;;;;;25.50;19.08;;;12.40;99.90;;;;;;7361261;19;20665;-60
2023/05/07 01:57:33;;;;;;;27.88;24.80;;;12.30;99.90;;;;;;7351928;19;20475;-59
2023/05/07 01:59:59;;;;;;;28.75;25.83;;;12.30;99.90;;;;;;7363865;19;20039;-59
2023/05/07 02:02:25;;;;;;;29.25;25.45;;;12.30;99.90;;;;;;7361095;19;20018;-59
2023/05/07 02:04:53;;;;;;;30.33;27.23;;;12.20;99.90;;;;;;7362584;19;20019;-65
2023/05/07 02:07:20;;;;;;;30.27;26.63;;;12.20;99.90;;;;;;7361835;19;21199;-65
2023/05/07 02:09:47;;;;;;;31.23;27.90;;;12.20;99.90;;;;;;7362996;19;20026;-64
2023/05/07 02:12:13;;;;;;;29.05;26.08;;;12.30;99.90;;;;;;7373777;19;20035;-65
2023/05/07 02:14:39;;;;;;;30.67;27.30;;;12.20;99.90;;;;;;7370548;19;20014;-64
2023/05/07 02:17:06;;;;;;;30.17;27.02;;;12.10;99.90;;;;;;7374255;19;20023;-64
2023/05/07 02:19:32;;;;;;;29.92;26.83;;;12.10;99.90;;;;;;7375169;19;20023;-65
2023/05/07 02:21:58;;;;;;;31.77;28.50;;;12.10;99.90;;;;;;7375908;19;20023;-64
2023/05/07 02:24:30;;;;;;;30.80;27.52;;;12.10;99.90;;;;;;7376434;19;20025;-65
2023/05/07 02:26:57;;;;;;;32.92;28.65;;;12.10;99.90;;;;;;7371553;19;20025;-65
2023/05/07 02:29:23;;;;;;;31.58;27.23;;;12.10;99.90;;;;;;7376984;19;20022;-64
2023/05/07 02:31:50;;;;;;;34.17;29.08;;;12.00;99.90;;;;;;7374989;19;20022;-65
2023/05/07 02:34:17;;;;;;;34.10;28.25;;;12.00;99.90;;;;;;7373737;19;20026;-65
2023/05/07 02:36:43;;;;;;;31.05;27.77;;;12.00;99.90;;;;;;7373723;19;20022;-65
2023/05/07 02:39:13;;;;;;;30.92;27.42;;;12.00;99.90;;;;;;7372947;19;20999;-64
2023/05/07 02:41:40;;;;;;;31.75;27.88;;;12.00;99.90;;;;;;7374455;19;20014;-64
2023/05/07 02:44:06;;;;;;;32.10;28.65;;;11.90;99.90;;;;;;7372198;19;20041;-65
2023/05/07 02:46:33;;;;;;;36.90;31.35;;;12.00;99.90;;;;;;7372776;19;20040;-65
2023/05/07 02:49:04;;;;;;;34.50;22.48;;;11.90;99.90;;;;;;7372308;19;20818;-65
2023/05/07 02:51:31;;;;;;;34.00;30.38;;;11.90;99.90;;;;;;7372815;19;20015;-65
2023/05/07 02:54:00;;;;;;;35.65;30.60;;;11.90;99.90;;;;;;7374657;19;20067;-65
2023/05/07 02:56:28;;;;;;;34.05;30.13;;;11.90;99.90;;;;;;7360233;19;20586;-65
2023/05/07 02:58:54;;;;;;;34.70;31.10;;;11.80;99.90;;;;;;7360814;19;20023;-65
2023/05/07 03:01:23;;;;;;;36.67;32.50;;;11.80;99.90;;;;;;7361323;19;20085;-65
2023/05/07 03:03:56;;;;;;;32.47;28.80;;;11.80;99.90;;;;;;7359020;19;20023;-65
2023/05/07 03:06:22;;;;;;;38.80;32.28;;;11.80;99.90;;;;;;7362636;19;20144;-65
2023/05/07 03:08:48;;;;;;;34.85;31.10;;;11.70;99.90;;;;;;7361442;19;20033;-65
2023/05/07 03:11:15;;;;;;;38.08;34.00;;;11.80;99.90;;;;;;7354252;19;20027;-65
2023/05/07 03:13:41;;;;;;;35.85;30.55;;;11.70;99.90;;;;;;7367155;19;20018;-65
2023/05/07 03:16:07;;;;;;;37.03;33.03;;;11.70;99.90;;;;;;7370031;19;20825;-66
2023/05/07 03:18:34;;;;;;;40.15;34.58;;;11.70;99.90;;;;;;7373678;19;20029;-59
2023/05/07 03:21:00;;;;;;;41.00;34.25;;;11.70;99.90;;;;;;7370220;19;20022;-59
2023/05/07 03:23:26;;;;;;;41.05;35.55;;;11.70;99.90;;;;;;7371559;19;20022;-65
2023/05/07 03:25:52;;;;;;;40.08;35.38;;;11.70;99.90;;;;;;7368824;19;20478;-65
2023/05/07 03:28:19;;;;;;;40.80;33.42;;;11.60;99.90;;;;;;7374849;19;20025;-65
2023/05/07 03:30:51;;;;;;;39.45;32.97;;;11.60;99.90;;;;;;7373712;19;20768;-65
2023/05/07 03:33:17;;;;;;;40.33;36.05;;;11.60;99.90;;;;;;7372123;19;20026;-65
2023/05/07 03:35:46;;;;;;;41.80;34.67;;;11.60;99.90;;;;;;7369039;19;20465;-65
2023/05/07 03:38:18;;;;;;;44.85;38.40;;;11.60;99.90;;;;;;7370606;19;20490;-65
2023/05/07 03:40:44;;;;;;;41.45;36.85;;;11.60;99.90;;;;;;7372365;19;22764;-65
2023/05/07 03:43:10;;;;;;;43.70;37.22;;;11.60;99.90;;;;;;7371503;19;20493;-65
2023/05/07 03:45:40;;;;;;;46.58;38.53;;;11.50;99.90;;;;;;7368313;19;20022;-65
2023/05/07 03:48:17;;;;;;;43.00;35.40;;;11.50;99.90;;;;;;7370126;19;20381;-65
2023/05/07 03:50:43;;;;;;;44.33;37.10;;;11.50;99.90;;;;;;7369955;19;20049;-65
2023/05/07 03:53:09;;;;;;;47.88;39.33;;;11.50;99.90;;;;;;7368499;19;20023;-59
2023/05/07 03:55:39;;;;;;;42.08;37.08;;;11.50;99.90;;;;;;7368841;19;20474;-59
2023/05/07 03:58:05;;;;;;;43.95;36.65;;;11.50;99.90;;;;;;7368464;19;20100;-60
2023/05/07 04:00:33;;;;;;;42.50;36.45;;;11.50;99.90;;;;;;7372196;19;20014;-59
2023/05/07 04:03:00;;;;;;;44.28;37.88;;;11.50;99.90;;;;;;7371045;19;20032;-59
2023/05/07 04:05:30;;;;;;;42.55;33.05;;;11.50;99.90;;;;;;7373940;19;20086;-59
2023/05/07 04:08:01;;;;;;;45.05;36.08;;;11.50;99.90;;;;;;7372650;19;20025;-59
2023/05/07 04:10:35;;;;;;;46.90;39.33;;;11.50;99.90;;;;;;7372275;19;20025;-59
2023/05/07 04:13:05;;;;;;;43.33;38.63;;;11.50;99.90;;;;;;7367361;19;20031;-59
2023/05/07 04:15:32;;;;;;;42.92;37.33;;;11.50;99.90;;;;;;7370443;19;20114;-59
2023/05/07 04:17:58;;;;;;;44.13;37.58;;;11.50;99.90;;;;;;7374401;19;20348;-59
2023/05/07 04:20:26;;;;;;;42.15;34.78;;;11.50;99.90;;;;;;7370468;19;20102;-59
2023/05/07 04:22:58;;;;;;;43.47;38.22;;;11.50;99.90;;;;;;7365875;19;20029;-59
2023/05/07 04:25:26;;;;;;;42.05;36.03;;;11.40;99.90;;;;;;7353274;19;20557;-59
2023/05/07 04:27:56;;;;;;;42.22;37.67;;;11.50;99.90;;;;;;7353009;19;20023;-66
2023/05/07 04:30:26;;;;;;;43.63;36.30;;;11.50;99.90;;;;;;7350587;19;20015;-65
2023/05/07 04:32:53;;;;;;;40.90;35.85;;;11.50;99.90;;;;;;7352276;19;20018;-66
2023/05/07 04:35:19;;;;;;;42.80;38.20;;;11.50;99.90;;;;;;7350279;19;20019;-65
2023/05/07 04:37:46;;;;;;;42.53;32.92;;;11.50;99.90;;;;;;7353489;19;20017;-65
2023/05/07 04:40:14;;;;;;;41.65;36.80;;;11.50;99.90;;;;;;7347602;19;20018;-65
2023/05/07 04:42:41;;;;;;;41.33;36.80;;;11.50;99.90;;;;;;7352710;19;20018;-66
2023/05/07 04:45:08;;;;;;;41.38;36.63;;;11.50;99.90;;;;;;7351783;19;20902;-65
2023/05/07 04:47:35;;;;;;;45.28;36.78;;;11.50;99.90;;;;;;7355312;19;20022;-66
2023/05/07 04:50:02;;;;;;;39.30;34.80;;;11.50;99.90;;;;;;7356136;19;20026;-66
2023/05/07 04:52:29;;;;;;;39.80;34.78;;;11.50;99.90;;;;;;7356625;19;20019;-66
2023/05/07 04:54:55;;;;;;;37.30;33.40;;;11.60;99.90;;;;;;7356395;19;20786;-65
2023/05/07 04:57:22;;;;;;;37.15;30.23;;;11.50;99.90;;;;;;7355802;19;20014;-66
2023/05/07 04:59:48;;;;;;;39.67;35.42;;;11.50;99.90;;;;;;7356286;19;20018;-66
2023/05/07 05:02:15;;;;;;;34.40;29.85;;;11.60;99.90;;;;;;7355207;19;20023;-66
2023/05/07 05:04:42;;;;;;;36.78;32.78;;;11.60;99.90;;;;;;7356289;19;20069;-66
2023/05/07 05:07:09;;;;;;;35.50;31.88;;;11.60;99.90;;;;;;7351126;19;20058;-66
2023/05/07 05:09:36;;;;;;;35.05;31.05;;;11.60;99.90;;;;;;7360778;19;20632;-66
2023/05/07 05:12:03;;;;;;;36.47;32.53;;;11.60;99.90;;;;;;7360497;19;20026;-65
2023/05/07 05:14:29;;;;;;;35.05;31.40;;;11.60;99.90;;;;;;7363607;19;20023;-65
2023/05/07 05:16:56;;;;;;;32.33;28.83;;;11.60;99.90;;;;;;7366179;19;20014;-65
2023/05/07 05:19:22;;;;;;;34.63;31.02;;;11.60;99.90;;;;;;7362492;19;20022;-65
2023/05/07 05:21:49;;;;;;;36.22;32.42;;;11.70;99.90;;;;;;7362227;19;20023;-66
2023/05/07 05:24:15;;;;;;;34.15;30.42;;;11.70;99.90;;;;;;7363276;19;20768;-65
2023/05/07 05:26:41;;;;;;;33.40;29.88;;;11.70;99.90;;;;;;7365261;19;20097;-65
2023/05/07 05:29:08;;;;;;;33.28;29.73;;;11.80;99.90;;;;;;7361763;19;20477;-65
2023/05/07 05:31:36;;;;;;;33.78;30.08;;;11.80;99.90;;;;;;7363170;19;20026;-65
2023/05/07 05:34:03;;;;;;;33.45;29.40;;;11.90;99.90;;;;;;7368648;19;20026;-66
2023/05/07 05:36:30;;;;;;;32.80;29.30;;;11.90;99.90;;;;;;7375409;19;20470;-65
2023/05/07 05:38:57;;;;;;;32.53;29.20;;;11.90;99.90;;;;;;7375780;19;20014;-65
2023/05/07 05:41:24;;;;;;;34.58;29.83;;;11.90;99.90;;;;;;7373435;19;20026;-65
2023/05/07 05:43:51;;;;;;;32.60;29.13;;;12.00;99.90;;;;;;7372583;19;20041;-59
2023/05/07 05:46:18;;;;;;;32.08;28.77;;;12.10;99.90;;;;;;7371474;19;20485;-59
2023/05/07 05:48:44;;;;;;;30.92;27.77;;;12.20;99.90;;;;;;7371879;19;20023;-58
2023/05/07 05:51:11;;;;;;;29.33;25.77;;;12.20;99.90;;;;;;7367376;19;20023;-65
2023/05/07 05:53:38;;;;;;;30.33;27.02;;;12.30;99.90;;;;;;7368473;19;20023;-65
2023/05/07 05:56:06;;;;;;;30.40;27.35;;;12.30;99.90;;;;;;7361546;19;20058;-65
2023/05/07 05:58:34;;;;;;;31.90;28.70;;;12.30;99.90;;;;;;7369794;19;20019;-63
2023/05/07 06:01:05;;;;;;;31.48;28.13;;;12.30;99.90;;;;;;7365761;19;20025;-65
2023/05/07 06:03:32;;;;;;;32.17;28.73;;;12.40;99.90;;;;;;7372244;19;20014;-65
2023/05/07 06:06:02;;;;;;;31.02;27.83;;;12.30;99.90;;;;;;7372380;19;20584;-65
2023/05/07 06:08:32;;;;;;;29.75;26.58;;;12.30;99.90;;;;;;7373542;19;20018;-65
2023/05/07 06:10:59;;;;;;;29.98;26.75;;;12.40;99.90;;;;;;7369503;19;20025;-65
2023/05/07 06:13:26;;;;;;;32.85;28.65;;;12.50;99.90;;;;;;7369997;19;20098;-65
2023/05/07 06:15:53;;;;;;;47.35;42.20;;;12.50;99.90;;;;;;7368096;19;20726;-68
2023/05/07 06:18:20;;;;;;;35.03;31.33;;;12.50;99.90;;;;;;7369442;19;20033;-69
2023/05/07 06:20:46;;;;;;;39.90;35.67;;;12.70;99.90;;;;;;7369340;19;20014;-65
2023/05/07 06:23:21;;;;;;;31.85;28.55;;;12.80;99.90;;;;;;7369391;19;20022;-65
2023/05/07 06:25:51;;;;;;;32.28;29.00;;;12.80;99.90;;;;;;7370084;19;20023;-65
2023/05/07 06:28:19;;;;;;;32.53;28.88;;;12.70;99.90;;;;;;7368236;19;20033;-58
2023/05/07 06:30:46;;;;;;;31.77;28.42;;;12.70;99.90;;;;;;7368667;19;21120;-60
2023/05/07 06:33:16;;;;;;;31.60;28.48;;;12.70;99.90;;;;;;7368126;19;20410;-59
2023/05/07 06:35:42;;;;;;;31.95;28.55;;;12.60;99.90;;;;;;7367894;19;20018;-59
2023/05/07 06:38:09;;;;;;;31.40;28.15;;;12.60;99.90;;;;;;7368317;19;20015;-59
2023/05/07 06:40:36;;;;;;;32.08;28.88;;;12.50;99.90;;;;;;7370773;19;20025;-59
2023/05/07 06:43:02;;;;;;;32.97;29.48;;;12.60;99.90;;;;;;7370761;19;20482;-59
2023/05/07 06:45:45;;;;;;;33.10;29.67;;;12.60;99.90;;;;;;7366369;19;20018;-58
2023/05/07 06:48:12;;;;;;;33.80;30.20;;;12.60;99.90;;;;;;7369405;19;20509;-59
2023/05/07 06:50:49;;;;;;;33.90;30.25;;;12.60;99.90;;;;;;7372257;19;20022;-64
2023/05/07 06:53:15;;;;;;;32.88;29.52;;;12.50;99.90;;;;;;7366314;19;20021;-64
2023/05/07 06:55:41;;;;;;;34.47;30.88;;;12.50;99.90;;;;;;7367108;19;20046;-64
2023/05/07 06:58:08;;;;;;;34.45;28.73;;;12.50;99.90;;;;;;7365574;19;20025;-64
2023/05/07 07:00:34;;;;;;;36.42;32.53;;;12.50;99.90;;;;;;7360354;19;20031;-63
2023/05/07 07:03:01;;;;;;;33.85;29.08;;;12.50;99.90;;;;;;7361859;19;20029;-64
2023/05/07 07:05:28;;;;;;;37.80;32.78;;;12.60;99.90;;;;;;7363646;19;20502;-64
2023/05/07 07:07:54;;;;;;;34.42;30.80;;;12.80;99.90;;;;;;7361031;19;20370;-64
2023/05/07 07:10:22;;;;;;;36.78;32.78;;;13.00;99.90;;;;;;7359249;19;20642;-65
2023/05/07 07:12:50;;;;;;;35.38;31.70;;;13.20;99.90;;;;;;7357559;19;20022;-64
2023/05/07 07:15:17;;;;;;;34.95;31.10;;;13.40;99.90;;;;;;7364823;19;20573;-64
2023/05/07 07:17:43;;;;;;;33.13;29.60;;;13.40;99.90;;;;;;7370720;19;20743;-64
2023/05/07 07:20:10;;;;;;;34.58;30.95;;;13.50;99.90;;;;;;7369198;19;20450;-64
2023/05/07 07:22:37;;;;;;;33.88;30.35;;;13.50;99.90;;;;;;7365261;19;20025;-64
2023/05/07 07:25:03;;;;;;;34.97;30.63;;;13.30;99.90;;;;;;7371455;19;20031;-64
2023/05/07 07:27:30;;;;;;;33.25;29.67;;;13.40;99.90;;;;;;7369900;19;20026;-64
2023/05/07 07:29:56;;;;;;;34.25;30.88;;;13.50;99.90;;;;;;7368945;19;20029;-64
2023/05/07 07:32:23;;;;;;;34.30;30.70;;;13.60;99.90;;;;;;7367634;19;20118;-64
2023/05/07 07:34:50;;;;;;;33.70;30.17;;;13.50;99.90;;;;;;7368447;19;20505;-64
2023/05/07 07:37:16;;;;;;;88.18;77.22;;;13.50;99.90;;;;;;7369873;19;20022;-65
2023/05/07 07:39:42;;;;;;;75.07;67.15;;;13.60;99.90;;;;;;7367671;19;20048;-67
2023/05/07 07:42:09;;;;;;;34.90;31.17;;;13.80;99.90;;;;;;7366082;19;20331;-64
2023/05/07 07:44:35;;;;;;;34.22;30.77;;;13.70;99.90;;;;;;7361894;19;20018;-65
2023/05/07 07:47:06;;;;;;;33.25;29.75;;;13.60;99.90;;;;;;7361477;19;20057;-59
2023/05/07 07:49:33;;;;;;;34.47;30.77;;;13.80;99.90;;;;;;7366390;19;20431;-64
2023/05/07 07:52:03;;;;;;;31.95;28.55;;;13.80;99.90;;;;;;7368444;19;20732;-64
2023/05/07 07:54:32;;;;;;;36.17;30.45;;;13.90;99.90;;;;;;7364118;19;20023;-65
2023/05/07 07:56:58;;;;;;;33.70;30.30;;;13.90;99.90;;;;;;7365682;19;20022;-64
2023/05/07 07:59:25;;;;;;;33.90;29.85;;;14.00;99.90;;;;;;7369965;19;20396;-65
2023/05/07 08:01:53;;;;;;;34.22;30.63;;;13.90;99.90;;;;;;7367195;19;20015;-65
2023/05/07 08:04:19;;;;;;;33.67;30.17;;;14.00;99.90;;;;;;7366112;19;20762;-65
2023/05/07 08:06:46;;;;;;;35.92;32.35;;;14.00;99.90;;;;;;7364445;19;20386;-65
2023/05/07 08:09:13;;;;;;;32.28;28.15;;;14.10;99.90;;;;;;7369063;19;20027;-65
2023/05/07 08:11:41;;;;;;;33.20;29.75;;;14.10;99.90;;;;;;7363853;19;20371;-60
2023/05/07 08:14:07;;;;;;;32.38;28.77;;;14.20;99.90;;;;;;7368385;19;20078;-59
2023/05/07 08:16:34;;;;;;;33.97;30.40;;;14.20;99.90;;;;;;7369397;19;20800;-58
2023/05/07 08:19:01;;;;;;;33.90;29.95;;;14.30;99.90;;;;;;7367517;19;20055;-58
2023/05/07 08:21:27;;;;;;;34.42;29.92;;;14.30;99.90;;;;;;7364405;19;20070;-59
2023/05/07 08:23:54;;;;;;;32.53;28.70;;;14.50;99.90;;;;;;7366374;19;20498;-59
2023/05/07 08:26:20;;;;;;;33.15;29.63;;;14.70;99.90;;;;;;7364042;19;20022;-59
2023/05/07 08:28:47;;;;;;;34.28;30.98;;;14.80;99.90;;;;;;7367972;19;20033;-59
2023/05/07 08:31:13;;;;;;;32.00;28.60;;;15.00;99.90;;;;;;7367099;19;20022;-59
2023/05/07 08:33:43;;;;;;;31.08;27.85;;;15.20;99.90;;;;;;7367221;19;20045;-59
2023/05/07 08:36:10;;;;;;;27.40;24.42;;;15.40;99.90;;;;;;7368301;19;20090;-59
2023/05/07 08:38:37;;;;;;;31.65;28.35;;;15.50;99.90;;;;;;7360479;19;20014;-59
2023/05/07 08:41:04;;;;;;;30.38;27.17;;;15.60;99.90;;;;;;7365172;19;20515;-59
2023/05/07 08:43:33;;;;;;;32.55;29.23;;;15.70;99.90;;;;;;7367471;19;20055;-65
2023/05/07 08:46:04;;;;;;;29.88;26.85;;;15.80;99.90;;;;;;7366090;19;20125;-65
2023/05/07 08:48:35;;;;;;;29.77;26.70;;;15.90;99.90;;;;;;7366951;19;20026;-65
2023/05/07 08:51:13;;;;;;;30.48;27.40;;;16.00;99.90;;;;;;7362292;19;20584;-65
2023/05/07 08:53:50;;;;;;;29.67;26.67;;;16.30;99.90;;;;;;7365811;19;20019;-64
2023/05/07 08:56:22;;;;;;;34.03;30.33;;;16.00;99.90;;;;;;7361406;19;20363;-64
2023/05/07 08:58:49;;;;;;;29.48;25.40;;;16.20;99.90;;;;;;7366821;19;20018;-64
2023/05/07 09:01:17;;;;;;;30.88;27.77;;;16.60;99.90;;;;;;7362424;19;20011;-64
2023/05/07 09:03:51;;;;;;;31.40;28.35;;;16.80;99.90;;;;;;7362273;19;20019;-64
2023/05/07 09:06:18;;;;;;;29.67;26.90;;;16.80;99.90;;;;;;7361197;19;20070;-65
2023/05/07 09:08:55;;;;;;;29.25;26.30;;;16.90;99.90;;;;;;7369676;19;20782;-65
2023/05/07 09:11:25;;;;;;;29.05;26.05;;;17.30;99.90;;;;;;7363169;19;20152;-59
2023/05/07 09:13:59;;;;;;;27.98;25.17;;;17.50;99.90;;;;;;7366530;19;20043;-59
2023/05/07 09:16:26;;;;;;;28.33;25.48;;;17.80;99.90;;;;;;7368066;19;20489;-59
2023/05/07 09:18:54;;;;;;;26.88;24.25;;;17.80;99.90;;;;;;7366654;19;20022;-58
2023/05/07 09:21:22;;;;;;;29.73;26.83;;;18.00;99.90;;;;;;7362559;19;20370;-58
2023/05/07 09:23:52;;;;;;;27.90;25.15;;;18.10;99.90;;;;;;7366285;19;20122;-59
2023/05/07 09:26:25;;;;;;;25.60;23.17;;;18.10;99.90;;;;;;7365846;19;20466;-59
2023/05/07 09:28:52;;;;;;;27.00;24.40;;;18.10;99.90;;;;;;7366290;19;20118;-59
2023/05/07 09:31:20;;;;;;;26.10;23.38;;;17.90;99.90;;;;;;7362451;19;20022;-59
2023/05/07 09:33:47;;;;;;;26.05;23.58;;;18.10;99.90;;;;;;7364016;19;20029;-59
2023/05/07 09:36:15;;;;;;;26.50;23.90;;;17.90;99.90;;;;;;7362676;19;20048;-59
2023/05/07 09:38:45;;;;;;;26.38;23.73;;;17.90;99.90;;;;;;7366470;19;20018;-59
2023/05/07 09:41:13;;;;;;;26.17;23.73;;;18.10;99.90;;;;;;7364009;19;20014;-58
2023/05/07 09:44:05;;;;;;;25.73;23.27;;;18.30;99.90;;;;;;7360553;19;20022;-59
2023/05/07 09:46:41;;;;;;;24.95;22.45;;;18.60;99.90;;;;;;7362787;19;20657;-58
2023/05/07 09:49:23;;;;;;;23.95;21.67;;;18.80;99.90;;;;;;7361021;19;20779;-59
2023/05/07 09:51:55;;;;;;;26.25;23.65;;;18.60;99.90;;;;;;7362724;19;20011;-58
2023/05/07 09:54:25;;;;;;;24.27;21.98;;;18.60;99.90;;;;;;7359093;19;20500;-58
2023/05/07 09:56:55;;;;;;;25.25;22.75;;;18.70;99.90;;;;;;7365038;19;20042;-58
2023/05/07 09:59:27;;;;;;;24.45;22.05;;;19.30;99.90;;;;;;7362513;19;20026;-59
2023/05/07 10:01:58;;;;;;;24.85;22.45;;;19.80;99.90;;;;;;7365254;19;20631;-59
2023/05/07 10:04:26;;;;;;;22.55;20.35;;;19.90;99.90;;;;;;7362049;19;20793;-64
2023/05/07 10:06:55;;;;;;;23.40;21.00;;;20.00;99.90;;;;;;7366620;19;20019;-63
2023/05/07 10:09:23;;;;;;;23.67;21.38;;;19.80;99.90;;;;;;7364975;19;20028;-63
2023/05/07 10:11:51;;;;;;;22.83;20.55;;;19.80;99.90;;;;;;7363711;19;20023;-63
2023/05/07 10:14:19;;;;;;;22.73;20.63;;;19.90;99.90;;;;;;7357155;19;20018;-63
2023/05/07 10:16:48;;;;;;;22.98;20.63;;;19.60;99.90;;;;;;7363728;19;20019;-63
2023/05/07 10:19:17;;;;;;;22.58;20.45;;;19.60;99.90;;;;;;7362761;19;20437;-63
2023/05/07 10:22:06;;;;;;;22.38;19.77;;;19.70;99.90;;;;;;7372131;19;20753;-63
2023/05/07 10:24:37;;;;;;;22.05;19.98;;;20.10;99.90;;;;;;7372234;19;20041;-63
2023/05/07 10:27:12;;;;;;;21.00;18.75;;;20.70;99.90;;;;;;7370444;19;20045;-63
2023/05/07 10:29:53;;;;;;;19.88;17.88;;;21.10;99.90;;;;;;7366745;19;20017;-63
2023/05/07 10:32:38;;;;;;;21.42;19.42;;;21.40;99.90;;;;;;7365748;19;20018;-63
2023/05/07 10:35:32;;;;;;;20.75;18.63;;;21.30;99.90;;;;;;7367293;19;20018;-63
2023/05/07 10:38:03;;;;;;;21.25;19.27;;;21.00;99.90;;;;;;7368086;19;20014;-63
2023/05/07 10:40:31;;;;;;;21.45;19.42;;;21.30;99.90;;;;;;7372107;19;20019;-62
2023/05/07 10:43:00;;;;;;;19.50;17.60;;;21.40;99.90;;;;;;7368575;19;20086;-63
2023/05/07 10:45:31;;;;;;;21.48;19.48;;;21.20;99.90;;;;;;7366463;19;20769;-61
2023/05/07 10:48:16;;;;;;;21.45;19.27;;;20.80;99.90;;;;;;7371212;19;20018;-62
2023/05/07 10:50:46;;;;;;;23.08;20.90;;;21.10;99.90;;;;;;7351414;19;20044;-63
2023/05/07 10:53:19;;;;;;;20.48;18.58;;;21.00;99.90;;;;;;7362596;19;20047;-62
2023/05/07 10:56:21;;;;;;;22.08;19.88;;;21.40;99.90;;;;;;7361175;19;20026;-59
2023/05/07 10:58:53;;;;;;;39.20;35.33;;;21.10;99.90;;;;;;7369917;19;20026;-58
2023/05/07 11:01:51;;;;;;;20.85;19.00;;;21.40;99.90;;;;;;7369395;19;20546;-59
2023/05/07 11:04:26;;;;;;;19.52;17.67;;;21.10;99.90;;;;;;7367904;19;20018;-58
2023/05/07 11:07:25;;;;;;;24.08;21.88;;;21.30;99.90;;;;;;7366685;19;20018;-59
2023/05/07 11:09:58;;;;;;;18.13;16.20;;;21.60;99.90;;;;;;7366762;19;20039;-59
2023/05/07 11:12:43;;;;;;;19.50;17.70;;;21.70;99.90;;;;;;7370945;19;20022;-59
2023/05/07 11:15:36;;;;;;;19.05;17.15;;;22.30;99.90;;;;;;7366996;19;20022;-59
2023/05/07 11:18:05;;;;;;;19.63;17.83;;;22.60;94.70;;;;;;7367548;19;20030;-59
2023/05/07 11:20:46;;;;;;;;;;;22.90;97.40;;;;;;7368538;19;20032;-59
2023/05/07 11:23:35;;;;;;;17.70;16.00;;;22.70;91.20;;;;;;7366312;19;19927;-59
2023/05/07 11:26:24;;;;;;;18.60;16.90;;;23.40;89.80;;;;;;7360885;19;21672;-59
2023/05/07 11:28:51;;;;;;;18.52;16.83;;;24.30;90.20;;;;;;7367735;19;20018;-63
2023/05/07 11:31:25;;;;;;;23.42;21.30;;;24.10;84.70;;;;;;7361691;19;20022;-63
2023/05/07 11:33:53;;;;;;;19.08;17.30;;;24.30;77.80;;;;;;7362647;19;20022;-63
2023/05/07 11:36:22;;;;;;;21.42;19.38;;;23.50;75.90;;;;;;7361804;19;20019;-63
2023/05/07 11:38:52;;;;;;;17.83;16.10;;;23.80;75.20;;;;;;7365976;19;20015;-63
2023/05/07 11:41:20;;;;;;;23.63;21.45;;;23.50;74.20;;;;;;7363554;19;20018;-63
2023/05/07 11:43:57;;;;;;;22.38;20.35;;;23.20;78.30;;;;;;7364514;19;20485;-63
2023/05/07 11:46:23;;;;;;;19.67;17.70;;;23.30;76.30;;;;;;7363567;19;20478;-63
2023/05/07 11:48:49;;;;;;;18.13;16.52;;;24.00;79.50;;;;;;7361359;19;20025;-63
2023/05/07 11:51:23;;;;;;;19.38;17.58;;;24.20;73.70;;;;;;7365087;19;20023;-64
2023/05/07 11:53:53;;;;;;;32.78;29.88;;;24.60;70.80;;;;;;7360917;19;20790;-57
2023/05/07 11:56:19;;;;;;;17.08;15.48;;;24.70;67.50;;;;;;7357794;19;20015;-57
2023/05/07 11:58:48;;;;;;;16.83;15.32;;;24.50;64.00;;;;;;7362046;19;20014;-59
2023/05/07 12:01:16;;;;;;;16.85;15.35;;;24.80;65.20;;;;;;7362393;19;20018;-60
2023/05/07 12:03:45;;;;;;;17.42;15.82;;;24.50;65.20;;;;;;7364762;19;20029;-59
2023/05/07 12:06:13;;;;;;;17.83;16.05;;;24.40;65.80;;;;;;7342699;19;20550;-59
2023/05/07 12:08:41;;;;;;;18.88;17.08;;;24.70;65.20;;;;;;7358850;19;20022;-59
2023/05/07 12:11:29;;;;;;;17.60;16.00;;;24.50;65.50;;;;;;7361778;19;20025;-59
2023/05/07 12:13:55;;;;;;;17.88;16.08;;;24.60;66.20;;;;;;7364739;19;20128;-59
2023/05/07 12:16:23;;;;;;;18.30;16.60;;;24.80;65.90;;;;;;7349948;19;20025;-59
2023/05/07 12:18:50;;;;;;;18.65;16.83;;;24.80;64.60;;;;;;7365182;19;20835;-59
2023/05/07 12:21:17;;;;;;;17.42;15.73;;;24.60;65.10;;;;;;7360490;19;20018;-57
2023/05/07 12:23:46;;;;;;;17.52;15.93;;;24.20;65.50;;;;;;7362073;19;20032;-59
2023/05/07 12:26:13;;;;;;;18.10;16.17;;;24.20;66.50;;;;;;7357319;19;20018;-63
2023/05/07 12:28:39;;;;;;;17.25;15.70;;;24.00;67.20;;;;;;7359592;19;20033;-63
2023/05/07 12:31:06;;;;;;;19.67;17.92;;;23.60;66.30;;;;;;7366105;19;20094;-59
2023/05/07 12:33:35;;;;;;;18.52;16.88;;;23.50;67.50;;;;;;7365773;19;20054;-63
2023/05/07 12:36:05;;;;;;;18.42;16.73;;;24.00;66.20;;;;;;7360103;19;20053;-62
2023/05/07 12:38:36;;;;;;;18.90;17.13;;;24.30;65.80;;;;;;7367086;19;20470;-63